Time;durP1;ratioP1;P1;durP2;ratioP2;P2;SDS_P1;SDS_P2;PMS_P1;PMS_P2;Temp;Humidity;BMP_temperature;BMP_pressure;BME280_temperature;BME280_humidity;BME280_pressure;Samples;Min_cycle;Max_cycle;Signal;HPM_P1;HPM_P2
2023/07/22 00:02:27;;;;;;;0.95;0.77;;;;;;;17.29;51.03;100871.16;5201972;28;20059;-84
2023/07/22 00:05:23;;;;;;;0.70;0.70;;;;;;;17.26;51.18;100866.00;5199927;28;20548;-84
2023/07/22 00:08:14;;;;;;;0.70;0.70;;;;;;;17.20;51.81;100868.97;5200390;28;20052;-85
2023/07/22 00:11:05;;;;;;;0.80;0.80;;;;;;;17.22;51.47;100872.41;5201641;28;20412;-83
2023/07/22 00:13:56;;;;;;;0.93;0.93;;;;;;;17.20;51.53;100874.28;5198474;28;20032;-83
2023/07/22 00:16:47;;;;;;;0.55;0.55;;;;;;;17.13;52.01;100873.75;5203075;28;20027;-85
2023/07/22 00:19:38;;;;;;;0.68;0.68;;;;;;;17.15;51.38;100869.22;5210249;28;20044;-84
2023/07/22 00:22:29;;;;;;;0.55;0.55;;;;;;;17.13;51.58;100870.25;5200878;28;20408;-84
2023/07/22 00:25:22;;;;;;;0.75;0.75;;;;;;;17.11;51.93;100867.66;5231406;28;20447;-84
2023/07/22 00:28:13;;;;;;;0.87;0.87;;;;;;;17.06;51.96;100861.75;5199038;28;20116;-83
2023/07/22 00:31:04;;;;;;;1.88;1.33;;;;;;;17.02;51.92;100861.97;5199166;28;20052;-85
2023/07/22 00:33:54;;;;;;;0.63;0.63;;;;;;;17.03;52.23;100866.34;5213658;28;20041;-84
2023/07/22 00:36:47;;;;;;;0.63;0.63;;;;;;;16.98;52.15;100867.44;5211189;28;20032;-84
2023/07/22 00:39:37;;;;;;;0.50;0.50;;;;;;;17.01;52.33;100861.13;5215574;28;20062;-84
2023/07/22 00:42:28;;;;;;;0.60;0.60;;;;;;;17.05;51.76;100864.50;5206460;28;20021;-84
2023/07/22 00:45:19;;;;;;;0.85;0.50;;;;;;;17.03;51.57;100859.25;5201738;28;20028;-83
2023/07/22 00:48:12;;;;;;;1.45;0.77;;;;;;;17.11;51.88;100864.16;5201166;28;20037;-84
2023/07/22 00:51:02;;;;;;;0.68;0.68;;;;;;;17.04;51.51;100857.47;5202760;28;20059;-84
2023/07/22 00:53:53;;;;;;;0.70;0.70;;;;;;;16.96;51.83;100856.06;5212016;28;20112;-84
2023/07/22 00:56:47;;;;;;;0.93;0.93;;;;;;;17.01;51.78;100854.97;5202694;28;20085;-84
2023/07/22 00:59:39;;;;;;;1.58;1.48;;;;;;;17.01;51.74;100855.84;5214171;28;20041;-83
2023/07/22 01:02:30;;;;;;;0.73;0.50;;;;;;;16.97;51.74;100848.97;5213446;28;20040;-85
2023/07/22 01:05:21;;;;;;;0.65;0.65;;;;;;;16.99;52.12;100853.25;5216642;28;20041;-84
2023/07/22 01:08:12;;;;;;;1.85;1.75;;;;;;;16.93;52.55;100858.03;5222075;28;20142;-85
2023/07/22 01:11:03;;;;;;;0.40;0.40;;;;;;;16.88;52.91;100854.72;5206598;28;20041;-85
2023/07/22 01:13:57;;;;;;;1.38;1.27;;;;;;;16.75;53.68;100849.19;5224339;28;20032;-85
2023/07/22 01:16:48;;;;;;;0.35;0.35;;;;;;;16.74;53.26;100844.81;5197504;28;20017;-85
2023/07/22 01:19:40;;;;;;;0.43;0.43;;;;;;;16.79;53.08;100843.66;5199190;28;20662;-85
2023/07/22 01:22:33;;;;;;;1.15;0.88;;;;;;;16.68;52.99;100844.19;5227754;28;20056;-84
2023/07/22 01:25:24;;;;;;;0.70;0.70;;;;;;;16.68;53.37;100840.72;5213761;28;20033;-85
2023/07/22 01:28:14;;;;;;;0.60;0.60;;;;;;;16.73;52.55;100835.19;5204411;28;20021;-83
2023/07/22 01:31:05;;;;;;;0.68;0.68;;;;;;;16.70;53.22;100841.47;5200031;28;20068;-85
2023/07/22 01:33:58;;;;;;;0.85;0.85;;;;;;;16.64;53.46;100837.34;5196139;28;20041;-84
2023/07/22 01:36:49;;;;;;;1.75;1.23;;;;;;;16.65;52.89;100840.84;5202278;28;20427;-85
2023/07/22 01:39:41;;;;;;;1.45;1.35;;;;;;;16.69;52.92;100842.44;5210536;28;20041;-85
2023/07/22 01:42:32;;;;;;;1.55;1.45;;;;;;;16.53;53.53;100829.09;5216346;28;20029;-82
2023/07/22 01:45:23;;;;;;;0.40;0.40;;;;;;;16.65;52.99;100831.09;5213033;28;20057;-84
2023/07/22 01:48:14;;;;;;;0.43;0.43;;;;;;;16.62;52.12;100833.91;5199913;28;20629;-84
2023/07/22 01:51:05;;;;;;;2.22;1.33;;;;;;;16.55;52.99;100831.66;5210628;28;20081;-85
2023/07/22 01:53:56;;;;;;;0.73;0.73;;;;;;;16.58;52.97;100829.69;5196533;28;20074;-84
2023/07/22 01:56:47;;;;;;;0.52;0.52;;;;;;;16.44;53.36;100829.53;5201500;28;20024;-84
2023/07/22 01:59:38;;;;;;;0.77;0.70;;;;;;;16.35;54.20;100837.00;5210589;28;20040;-84
2023/07/22 02:02:29;;;;;;;0.55;0.55;;;;;;;16.46;53.59;100825.88;5212232;28;20017;-82
2023/07/22 02:05:20;;;;;;;1.10;1.00;;;;;;;16.38;53.02;100824.56;5210134;28;20061;-85
2023/07/22 02:08:11;;;;;;;0.57;0.57;;;;;;;16.40;53.75;100833.28;5215405;28;20033;-84
2023/07/22 02:11:04;;;;;;;0.68;0.68;;;;;;;16.39;53.40;100836.88;5216034;28;20044;-84
2023/07/22 02:13:55;;;;;;;0.75;0.75;;;;;;;16.34;54.09;100834.44;5208738;28;20041;-83
2023/07/22 02:16:45;;;;;;;1.13;1.02;;;;;;;16.32;53.94;100831.00;5199081;28;20079;-85
2023/07/22 02:19:36;;;;;;;0.63;0.50;;;;;;;16.48;53.31;100831.13;5210362;28;20037;-83
2023/07/22 02:22:27;;;;;;;1.05;0.90;;;;;;;16.33;53.44;100819.50;5214591;28;20035;-84
2023/07/22 02:25:18;;;;;;;1.35;1.25;;;;;;;16.33;53.71;100816.84;5197786;28;20053;-85
2023/07/22 02:28:09;;;;;;;4.07;0.98;;;;;;;16.29;52.98;100815.28;5222591;28;20044;-85
2023/07/22 02:31:05;;;;;;;0.77;0.77;;;;;;;16.29;53.37;100817.91;5222386;28;20041;-85
2023/07/22 02:33:56;;;;;;;0.70;0.70;;;;;;;16.26;53.29;100816.28;5219413;28;20033;-86
2023/07/22 02:36:47;;;;;;;0.70;0.68;;;;;;;16.16;53.95;100815.88;5203384;28;20013;-84
2023/07/22 02:39:38;;;;;;;0.90;0.90;;;;;;;16.19;54.04;100825.47;5199340;28;20569;-84
2023/07/22 02:42:28;;;;;;;0.65;0.65;;;;;;;16.10;54.55;100818.84;5212600;28;20039;-84
2023/07/22 02:45:19;;;;;;;1.02;1.02;;;;;;;15.92;55.18;100823.22;5198294;28;20033;-84
2023/07/22 02:48:10;;;;;;;0.40;0.40;;;;;;;16.15;54.54;100834.50;5215028;28;20243;-84
2023/07/22 02:51:04;;;;;;;1.05;1.00;;;;;;;16.14;54.14;100830.97;5198012;28;20033;-85
2023/07/22 02:53:55;;;;;;;0.82;0.82;;;;;;;16.12;53.90;100827.53;5210350;28;20029;-83
2023/07/22 02:56:46;;;;;;;0.63;0.63;;;;;;;16.01;54.32;100828.06;5213447;28;20577;-84
2023/07/22 02:59:37;;;;;;;0.45;0.45;;;;;;;16.00;53.67;100826.34;5215519;28;20029;-84
2023/07/22 03:02:28;;;;;;;1.02;0.70;;;;;;;15.96;54.39;100827.44;5197873;28;20072;-84
2023/07/22 03:05:21;;;;;;;2.05;1.38;;;;;;;15.99;54.30;100829.09;5196252;28;20083;-85
2023/07/22 03:08:11;;;;;;;0.30;0.30;;;;;;;15.87;54.32;100825.22;5201425;28;20360;-85
2023/07/22 03:11:03;;;;;;;0.43;0.43;;;;;;;15.87;54.60;100827.88;5229099;28;20041;-85
2023/07/22 03:13:54;;;;;;;0.50;0.50;;;;;;;15.92;54.36;100832.97;5211293;28;20156;-84
2023/07/22 03:16:45;;;;;;;1.65;1.15;;;;;;;15.78;54.61;100830.94;5210597;28;20013;-84
2023/07/22 03:19:36;;;;;;;0.95;0.90;;;;;;;15.81;54.18;100829.00;5196983;28;20025;-83
2023/07/22 03:22:26;;;;;;;2.20;1.38;;;;;;;15.89;54.38;100831.31;5197847;28;20021;-84
2023/07/22 03:25:19;;;;;;;0.40;0.40;;;;;;;15.91;54.41;100832.09;5207533;28;20017;-84
2023/07/22 03:28:10;;;;;;;0.50;0.50;;;;;;;15.83;54.95;100840.41;5217988;28;20033;-85
2023/07/22 03:31:01;;;;;;;0.90;0.73;;;;;;;15.77;55.36;100835.38;5210046;28;20038;-84
2023/07/22 03:33:52;;;;;;;0.52;0.52;;;;;;;15.78;54.44;100842.38;5223867;28;20052;-83
2023/07/22 03:36:43;;;;;;;1.98;1.60;;;;;;;15.34;56.74;100846.13;5207957;28;20071;-83
2023/07/22 03:39:33;;;;;;;1.15;0.98;;;;;;;15.42;56.23;100836.06;5226880;28;20047;-82
2023/07/22 03:42:24;;;;;;;0.45;0.45;;;;;;;15.54;55.84;100845.22;5229931;28;20025;-84
2023/07/22 03:45:19;;;;;;;0.70;0.70;;;;;;;15.61;55.37;100842.31;5204967;28;20053;-84
2023/07/22 03:48:10;;;;;;;1.30;1.13;;;;;;;15.51;55.55;100839.22;5196759;28;20105;-84
2023/07/22 03:51:00;;;;;;;0.65;0.52;;;;;;;15.57;56.26;100838.94;5203152;28;20029;-85
2023/07/22 03:53:51;;;;;;;0.98;0.63;;;;;;;15.36;57.17;100844.28;5209873;28;20052;-84
2023/07/22 03:56:42;;;;;;;1.50;1.40;;;;;;;15.61;55.63;100839.66;5230371;28;20020;-84
2023/07/22 03:59:33;;;;;;;0.85;0.82;;;;;;;15.62;55.35;100842.22;5196250;28;20029;-83
2023/07/22 04:02:24;;;;;;;0.50;0.50;;;;;;;15.49;56.10;100839.28;5230500;28;20036;-84
2023/07/22 04:05:15;;;;;;;0.20;0.20;;;;;;;15.56;56.24;100847.81;5202546;28;20045;-84
2023/07/22 04:08:06;;;;;;;0.75;0.68;;;;;;;15.36;57.06;100836.34;5200170;28;20106;-85
2023/07/22 04:10:57;;;;;;;1.65;1.55;;;;;;;15.35;56.77;100842.56;5202129;28;20056;-85
2023/07/22 04:13:48;;;;;;;1.23;1.15;;;;;;;15.49;55.87;100846.38;5217638;28;20565;-84
2023/07/22 04:16:40;;;;;;;1.17;0.82;;;;;;;15.47;55.87;100849.06;5202802;28;20103;-85
2023/07/22 04:19:30;;;;;;;0.80;0.80;;;;;;;15.36;56.62;100843.44;5215406;28;20083;-84
2023/07/22 04:22:21;;;;;;;0.70;0.70;;;;;;;15.48;56.07;100842.84;5201045;28;20400;-84
2023/07/22 04:25:12;;;;;;;1.20;0.52;;;;;;;15.53;55.92;100837.34;5201439;28;20076;-84
2023/07/22 04:28:03;;;;;;;0.63;0.63;;;;;;;15.40;56.55;100843.22;5217167;28;20036;-84
2023/07/22 04:30:56;;;;;;;1.13;1.10;;;;;;;15.42;56.12;100851.06;5199173;28;20518;-85
2023/07/22 04:33:47;;;;;;;0.50;0.50;;;;;;;15.48;56.70;100855.22;5198259;28;20062;-84
2023/07/22 04:36:38;;;;;;;1.05;1.05;;;;;;;15.45;56.86;100856.25;5217579;28;20121;-85
2023/07/22 04:39:29;;;;;;;2.05;0.95;;;;;;;15.53;56.47;100853.22;5216080;28;20052;-84
2023/07/22 04:42:20;;;;;;;0.75;0.75;;;;;;;15.53;55.92;100848.81;5192460;28;20021;-83
2023/07/22 04:45:11;;;;;;;0.70;0.70;;;;;;;15.50;56.38;100851.59;5228950;28;20075;-83
2023/07/22 04:48:02;;;;;;;1.35;0.82;;;;;;;15.52;56.20;100847.09;5211489;28;20044;-84
2023/07/22 04:50:53;;;;;;;0.52;0.52;;;;;;;15.52;56.08;100840.94;5210336;28;20519;-84
2023/07/22 04:53:44;;;;;;;0.73;0.73;;;;;;;15.57;56.10;100849.53;5192802;28;20476;-84
2023/07/22 04:56:34;;;;;;;0.70;0.70;;;;;;;15.60;55.99;100848.53;5196274;28;20029;-84
2023/07/22 04:59:25;;;;;;;0.20;0.20;;;;;;;15.58;55.79;100840.63;5211195;28;20445;-83
2023/07/22 05:02:16;;;;;;;0.52;0.52;;;;;;;15.62;55.60;100836.94;5207707;28;20025;-84
2023/07/22 05:05:07;;;;;;;0.30;0.30;;;;;;;15.60;55.80;100838.78;5225296;28;20020;-85
2023/07/22 05:07:58;;;;;;;1.08;0.95;;;;;;;15.62;56.03;100847.53;5222234;28;20017;-84
2023/07/22 05:10:49;;;;;;;0.60;0.60;;;;;;;15.62;55.57;100842.22;5200750;28;20528;-84
2023/07/22 05:13:40;;;;;;;2.38;1.10;;;;;;;15.63;56.26;100840.44;5214245;28;20067;-84
2023/07/22 05:16:30;;;;;;;1.60;1.17;;;;;;;15.60;56.85;100837.94;5210711;28;20059;-84
2023/07/22 05:19:21;;;;;;;0.40;0.40;;;;;;;15.78;55.86;100846.81;5195839;28;20036;-84
2023/07/22 05:22:12;;;;;;;1.35;0.60;;;;;;;15.60;56.95;100852.00;5212233;28;20025;-84
2023/07/22 05:25:04;;;;;;;3.03;1.38;;;;;;;15.73;56.09;100845.25;5197239;28;20036;-84
2023/07/22 05:27:55;;;;;;;1.05;1.02;;;;;;;15.76;55.57;100848.66;5201946;28;20021;-83
2023/07/22 05:30:46;;;;;;;1.55;0.90;;;;;;;15.70;56.27;100855.97;5228487;28;20033;-82
2023/07/22 05:33:37;;;;;;;0.88;0.88;;;;;;;15.71;56.44;100852.38;5220153;28;20040;-83
2023/07/22 05:36:28;;;;;;;5.78;0.73;;;;;;;15.70;56.31;100850.66;5207613;28;20033;-82
2023/07/22 05:39:19;;;;;;;0.57;0.50;;;;;;;15.72;57.13;100854.09;5215289;28;20040;-82
2023/07/22 05:42:10;;;;;;;0.40;0.40;;;;;;;15.78;56.34;100863.53;5215775;28;20070;-82
2023/07/22 05:45:02;;;;;;;0.30;0.30;;;;;;;15.71;56.84;100862.97;5215432;28;20037;-82
2023/07/22 05:47:53;;;;;;;0.60;0.60;;;;;;;15.73;56.82;100863.75;5223233;28;20028;-83
2023/07/22 05:50:44;;;;;;;0.25;0.25;;;;;;;15.81;56.64;100857.25;5205496;28;20048;-83
2023/07/22 05:53:35;;;;;;;0.70;0.70;;;;;;;15.86;56.68;100857.91;5193565;28;20035;-83
2023/07/22 05:56:25;;;;;;;0.73;0.73;;;;;;;15.79;56.60;100859.09;5214248;28;20092;-84
2023/07/22 05:59:16;;;;;;;1.15;1.13;;;;;;;15.82;56.78;100853.69;5220558;28;20032;-83
2023/07/22 06:02:08;;;;;;;0.65;0.57;;;;;;;15.79;56.48;100846.72;5203008;28;20029;-83
2023/07/22 06:04:59;;;;;;;0.85;0.82;;;;;;;15.85;56.59;100842.97;5206149;28;20049;-83
2023/07/22 06:07:50;;;;;;;0.73;0.73;;;;;;;15.93;56.99;100845.25;5193426;28;20421;-82
2023/07/22 06:10:41;;;;;;;0.57;0.57;;;;;;;15.92;57.62;100843.53;5225174;28;20038;-83
2023/07/22 06:13:32;;;;;;;1.17;1.08;;;;;;;15.95;58.23;100844.25;5193661;28;20037;-83
2023/07/22 06:16:22;;;;;;;3.50;1.65;;;;;;;15.92;59.64;100843.53;5200495;28;20037;-83
2023/07/22 06:19:13;;;;;;;3.65;2.28;;;;;;;16.00;58.84;100847.53;5219752;28;20029;-83
2023/07/22 06:22:04;;;;;;;1.10;1.05;;;;;;;16.10;59.03;100844.44;5221061;28;20021;-85
2023/07/22 06:24:56;;;;;;;2.60;1.30;;;;;;;16.08;59.71;100846.28;5214133;28;20570;-85
2023/07/22 06:27:47;;;;;;;0.60;0.60;;;;;;;16.13;59.23;100847.78;5223508;28;20063;-85
2023/07/22 06:30:38;;;;;;;0.57;0.50;;;;;;;16.20;59.07;100851.84;5208549;28;20033;-85
2023/07/22 06:33:29;;;;;;;1.55;1.35;;;;;;;16.16;60.02;100844.13;5213005;28;20032;-83
2023/07/22 06:36:19;;;;;;;1.67;1.48;;;;;;;16.09;60.94;100848.00;5194121;28;20725;-83
2023/07/22 06:39:10;;;;;;;1.67;1.55;;;;;;;16.08;60.14;100854.22;5208416;28;20315;-84
2023/07/22 06:42:01;;;;;;;0.35;0.35;;;;;;;16.05;60.36;100864.06;5193099;28;20569;-83
2023/07/22 06:44:52;;;;;;;2.25;1.38;;;;;;;15.80;60.53;100860.81;5213925;28;20047;-84
2023/07/22 06:47:43;;;;;;;1.35;1.23;;;;;;;15.94;60.56;100861.06;5208209;28;20052;-84
2023/07/22 06:50:34;;;;;;;2.30;1.20;;;;;;;16.00;60.51;100863.41;5211482;28;20032;-83
2023/07/22 06:53:25;;;;;;;3.05;1.25;;;;;;;16.01;60.79;100851.88;5208078;28;20029;-83
2023/07/22 06:56:16;;;;;;;0.77;0.77;;;;;;;16.00;60.60;100857.25;5226514;28;20028;-83
2023/07/22 06:59:06;;;;;;;0.50;0.50;;;;;;;16.03;60.89;100857.97;5199805;28;20037;-84
2023/07/22 07:01:57;;;;;;;1.25;1.15;;;;;;;16.13;60.84;100852.25;5202594;28;20029;-83
2023/07/22 07:04:49;;;;;;;1.83;1.73;;;;;;;16.15;60.61;100853.03;5199266;28;20041;-83
2023/07/22 07:07:41;;;;;;;1.95;1.55;;;;;;;16.13;61.23;100858.38;5215793;28;20109;-83
2023/07/22 07:10:36;;;;;;;0.60;0.57;;;;;;;16.17;60.41;100853.78;5239324;28;20067;-83
2023/07/22 07:13:27;;;;;;;0.43;0.43;;;;;;;16.21;60.37;100852.72;5201591;28;20068;-83
2023/07/22 07:16:27;;;;;;;1.45;0.93;;;;;;;16.15;60.63;100851.22;5221771;28;20032;-83
2023/07/22 07:19:17;;;;;;;5.75;2.35;;;;;;;16.20;60.83;100857.16;5214329;28;20062;-83
2023/07/22 07:22:08;;;;;;;1.45;1.08;;;;;;;16.19;60.91;100862.53;5198597;28;20021;-83
2023/07/22 07:24:59;;;;;;;1.33;0.95;;;;;;;16.15;61.33;100859.16;5198387;28;20049;-84
2023/07/22 07:27:50;;;;;;;8.30;2.05;;;;;;;16.24;60.73;100854.34;5199981;28;20064;-84
2023/07/22 07:30:40;;;;;;;0.98;0.93;;;;;;;16.30;61.20;100854.94;5203335;28;20100;-84
2023/07/22 07:33:32;;;;;;;1.55;1.45;;;;;;;16.41;60.56;100856.16;5205838;28;20025;-84
2023/07/22 07:36:23;;;;;;;0.30;0.30;;;;;;;16.34;60.41;100860.94;5210443;28;20033;-84
2023/07/22 07:39:14;;;;;;;1.73;1.60;;;;;;;16.39;60.62;100866.00;5209518;28;20055;-84
2023/07/22 07:42:05;;;;;;;0.35;0.35;;;;;;;16.40;60.69;100867.72;5206131;28;20353;-84
2023/07/22 07:44:56;;;;;;;0.52;0.52;;;;;;;16.46;60.78;100864.75;5201556;28;20033;-84
2023/07/22 07:47:47;;;;;;;0.57;0.57;;;;;;;16.48;61.15;100854.97;5216476;28;20017;-83
2023/07/22 07:50:37;;;;;;;0.73;0.73;;;;;;;16.56;60.25;100859.84;5199995;28;20060;-84
2023/07/22 07:53:28;;;;;;;1.92;1.50;;;;;;;16.60;60.00;100862.28;5214793;28;20021;-84
2023/07/22 07:56:19;;;;;;;0.40;0.40;;;;;;;16.73;59.47;100856.38;5216867;28;20033;-84
2023/07/22 07:59:10;;;;;;;0.93;0.93;;;;;;;16.80;59.53;100860.41;5219457;28;20091;-83
2023/07/22 08:02:02;;;;;;;0.50;0.50;;;;;;;16.82;59.38;100853.22;5217910;28;20272;-83
2023/07/22 08:04:53;;;;;;;1.38;1.27;;;;;;;16.90;59.63;100852.84;5201505;28;20040;-84
2023/07/22 08:07:44;;;;;;;1.00;0.88;;;;;;;16.94;59.26;100855.28;5216130;28;20017;-84
2023/07/22 08:10:35;;;;;;;1.45;0.82;;;;;;;17.03;58.72;100863.69;5207632;28;20045;-84
2023/07/22 08:13:26;;;;;;;1.48;0.60;;;;;;;17.10;59.08;100854.50;5213831;28;20053;-83
2023/07/22 08:16:17;;;;;;;0.88;0.85;;;;;;;17.17;58.84;100863.81;5214432;28;20043;-83
2023/07/22 08:19:08;;;;;;;1.20;1.20;;;;;;;17.12;58.53;100869.38;5197522;28;20552;-84
2023/07/22 08:21:59;;;;;;;0.40;0.40;;;;;;;17.22;58.38;100863.59;5197503;28;20598;-83
2023/07/22 08:24:49;;;;;;;0.65;0.65;;;;;;;17.29;57.82;100860.53;5213193;28;20041;-83
2023/07/22 08:27:40;;;;;;;1.10;1.02;;;;;;;17.32;57.77;100864.81;5199135;28;20243;-83
2023/07/22 08:30:31;;;;;;;0.38;0.38;;;;;;;17.41;57.60;100863.47;5200646;28;20059;-83
2023/07/22 08:33:23;;;;;;;0.63;0.63;;;;;;;17.43;55.97;100856.28;5201723;28;20094;-85
2023/07/22 08:36:15;;;;;;;0.65;0.65;;;;;;;17.54;55.11;100856.56;5202482;28;20038;-83
2023/07/22 08:39:07;;;;;;;1.65;0.75;;;;;;;17.59;55.16;100846.56;5207336;28;20052;-83
2023/07/22 08:42:01;;;;;;;1.70;1.60;;;;;;;17.58;54.37;100851.97;5218432;28;20450;-84
2023/07/22 08:44:56;;;;;;;0.65;0.65;;;;;;;17.63;54.19;100849.91;5228962;28;20044;-84
2023/07/22 08:47:51;;;;;;;1.05;0.95;;;;;;;17.71;53.99;100849.50;5217402;28;20887;-84
2023/07/22 08:50:45;;;;;;;1.25;1.15;;;;;;;17.85;53.99;100852.22;5222827;28;20309;-83
2023/07/22 08:53:37;;;;;;;2.20;1.58;;;;;;;17.86;53.48;100848.63;5204309;28;20041;-84
2023/07/22 08:56:28;;;;;;;1.02;0.40;;;;;;;17.98;53.22;100846.25;5200690;28;20362;-83
2023/07/22 08:59:19;;;;;;;0.30;0.30;;;;;;;18.01;52.51;100848.75;5200366;28;20033;-84
2023/07/22 09:02:12;;;;;;;1.92;1.02;;;;;;;18.08;52.93;100848.31;5208914;28;20035;-83
2023/07/22 09:05:03;;;;;;;0.60;0.60;;;;;;;18.08;52.07;100850.97;5199632;28;20412;-83
2023/07/22 09:07:56;;;;;;;4.95;0.90;;;;;;;18.22;52.20;100851.97;5215626;28;20103;-84
2023/07/22 09:10:48;;;;;;;0.50;0.50;;;;;;;18.22;51.06;100850.16;5197080;28;20033;-83
2023/07/22 09:13:40;;;;;;;0.75;0.75;;;;;;;18.12;51.08;100848.13;5190448;28;20474;-83
2023/07/22 09:16:32;;;;;;;1.23;1.02;;;;;;;18.07;50.52;100851.03;5196140;28;20043;-84
2023/07/22 09:19:23;;;;;;;0.45;0.45;;;;;;;18.16;51.24;100850.53;5195404;28;20045;-84
2023/07/22 09:22:13;;;;;;;0.73;0.55;;;;;;;18.22;50.93;100850.16;5193538;28;20031;-84
2023/07/22 09:25:15;;;;;;;0.20;0.20;;;;;;;18.29;50.57;100857.81;5195398;28;20076;-83
2023/07/22 09:28:05;;;;;;;0.43;0.43;;;;;;;18.35;51.01;100855.63;5202355;28;20059;-83
2023/07/22 09:31:02;;;;;;;0.75;0.75;;;;;;;18.41;51.24;100854.44;5211206;28;20047;-84
2023/07/22 09:33:55;;;;;;;0.60;0.60;;;;;;;18.51;50.92;100854.78;5195499;28;20024;-84
2023/07/22 09:36:52;;;;;;;0.43;0.43;;;;;;;18.56;50.81;100848.22;5195214;28;20100;-84
2023/07/22 09:39:46;;;;;;;0.73;0.73;;;;;;;18.68;51.31;100846.63;5207379;28;20037;-83
2023/07/22 09:42:37;;;;;;;0.22;0.22;;;;;;;18.76;50.83;100842.69;5191972;28;20148;-84
2023/07/22 09:45:31;;;;;;;0.98;0.63;;;;;;;18.86;51.15;100844.69;5222056;28;20097;-83
2023/07/22 09:48:22;;;;;;;0.50;0.50;;;;;;;18.88;51.32;100848.09;5219342;28;20056;-83
2023/07/22 09:51:16;;;;;;;0.50;0.50;;;;;;;18.87;51.45;100846.41;5220652;28;20064;-83
2023/07/22 09:54:07;;;;;;;0.55;0.55;;;;;;;18.92;50.71;100850.59;5202422;28;20045;-84
2023/07/22 09:56:58;;;;;;;0.20;0.20;;;;;;;18.99;51.46;100846.63;5221480;28;20477;-84
2023/07/22 09:59:51;;;;;;;0.20;0.20;;;;;;;19.09;50.28;100845.13;5210255;28;20016;-84
2023/07/22 10:02:44;;;;;;;1.02;0.93;;;;;;;19.07;50.17;100847.03;5205565;28;20044;-83
2023/07/22 10:05:36;;;;;;;1.17;0.77;;;;;;;19.09;50.00;100850.44;5196122;28;20037;-84
2023/07/22 10:08:30;;;;;;;1.73;1.10;;;;;;;19.00;49.53;100851.00;5224346;28;20029;-84
2023/07/22 10:11:22;;;;;;;0.77;0.50;;;;;;;19.03;49.88;100851.69;5189756;28;20104;-84
2023/07/22 10:14:14;;;;;;;1.02;0.88;;;;;;;19.00;49.64;100849.22;5202758;28;20033;-84
2023/07/22 10:17:06;;;;;;;0.30;0.30;;;;;;;19.11;49.33;100842.38;5200521;28;20045;-84
2023/07/22 10:19:57;;;;;;;0.55;0.55;;;;;;;19.15;48.29;100841.25;5216259;28;20472;-84
2023/07/22 10:22:49;;;;;;;0.40;0.40;;;;;;;19.27;48.97;100840.47;5210458;28;20091;-83
2023/07/22 10:25:40;;;;;;;0.55;0.38;;;;;;;19.42;48.58;100840.50;5204909;28;20695;-83
2023/07/22 10:28:32;;;;;;;0.30;0.30;;;;;;;19.43;47.26;100837.72;5198298;28;20025;-84
2023/07/22 10:31:23;;;;;;;0.47;0.47;;;;;;;19.38;46.31;100833.66;5209158;28;20127;-84
2023/07/22 10:34:14;;;;;;;0.30;0.30;;;;;;;19.45;47.58;100830.50;5194986;28;20361;-83
2023/07/22 10:37:05;;;;;;;0.20;0.20;;;;;;;19.51;47.42;100829.25;5234023;28;20064;-84
2023/07/22 10:39:59;;;;;;;0.32;0.32;;;;;;;19.61;47.27;100835.72;5219253;28;20174;-84
2023/07/22 10:42:58;;;;;;;1.05;1.00;;;;;;;19.63;46.54;100820.50;5213132;28;20028;-83
2023/07/22 10:45:51;;;;;;;0.50;0.50;;;;;;;19.73;46.14;100815.44;5230457;28;20104;-84
2023/07/22 10:48:42;;;;;;;0.25;0.25;;;;;;;19.96;46.53;100810.44;5213345;28;20032;-84
2023/07/22 10:51:37;;;;;;;0.28;0.28;;;;;;;20.07;45.95;100810.63;5227690;28;20020;-85
2023/07/22 10:54:36;;;;;;;0.20;0.20;;;;;;;20.09;46.46;100805.19;5225477;28;20041;-85
2023/07/22 10:57:28;;;;;;;0.50;0.50;;;;;;;20.09;45.01;100802.50;5230933;28;20103;-85
2023/07/22 11:00:23;;;;;;;0.40;0.40;;;;;;;20.33;45.38;100794.72;5209192;28;20105;-85
2023/07/22 11:03:15;;;;;;;0.20;0.20;;;;;;;20.55;45.02;100788.78;5230094;28;20063;-84
2023/07/22 11:06:08;;;;;;;0.65;0.60;;;;;;;20.57;45.20;100784.22;5221551;28;20075;-86
2023/07/22 11:08:59;;;;;;;0.98;0.40;;;;;;;20.60;44.87;100783.97;5214641;28;20126;-85
2023/07/22 11:11:49;;;;;;;1.55;0.50;;;;;;;20.69;44.34;100777.19;5201541;28;20055;-86
2023/07/22 11:14:51;;;;;;;0.70;0.70;;;;;;;20.82;43.78;100781.69;5214898;28;20044;-85
2023/07/22 11:17:42;;;;;;;0.47;0.47;;;;;;;20.78;43.23;100769.53;5206896;28;20017;-86
2023/07/22 11:20:32;;;;;;;0.57;0.57;;;;;;;20.87;43.78;100766.22;5222926;28;20393;-86
2023/07/22 11:23:23;;;;;;;0.40;0.40;;;;;;;21.04;43.34;100776.53;5223012;28;20051;-86
2023/07/22 11:26:15;;;;;;;2.00;0.73;;;;;;;21.13;42.90;100771.53;5209416;28;20045;-85
2023/07/22 11:29:07;;;;;;;0.40;0.40;;;;;;;21.12;42.46;100764.47;5217826;28;20037;-84
2023/07/22 11:31:58;;;;;;;0.28;0.28;;;;;;;21.33;42.72;100768.28;5212229;28;20021;-85
2023/07/22 11:34:52;;;;;;;0.63;0.63;;;;;;;21.39;42.64;100767.84;5200147;28;20037;-84
2023/07/22 11:37:43;;;;;;;0.32;0.32;;;;;;;21.03;42.63;100766.00;5213737;28;20134;-85
2023/07/22 11:40:34;;;;;;;0.30;0.30;;;;;;;21.18;42.99;100766.72;5199976;28;20029;-86
2023/07/22 11:43:26;;;;;;;0.40;0.40;;;;;;;21.18;41.42;100772.06;5212789;28;20078;-86
2023/07/22 11:46:17;;;;;;;0.57;0.57;;;;;;;21.35;41.58;100769.03;5196834;28;20033;-86
2023/07/22 11:49:07;;;;;;;0.40;0.40;;;;;;;21.47;41.44;100761.09;5208576;28;20033;-85
2023/07/22 11:52:07;;;;;;;0.63;0.63;;;;;;;21.68;41.70;100767.59;5197844;28;20074;-85
2023/07/22 11:55:03;;;;;;;0.40;0.40;;;;;;;21.61;41.01;100758.31;5193559;28;20041;-85
2023/07/22 11:57:54;;;;;;;0.40;0.40;;;;;;;21.70;41.94;100752.28;5195857;28;20503;-86
2023/07/22 12:00:45;;;;;;;0.30;0.30;;;;;;;21.77;42.37;100749.19;5198518;28;20317;-85
2023/07/22 12:03:36;;;;;;;0.28;0.28;;;;;;;21.72;42.35;100751.31;5195873;28;20036;-84
2023/07/22 12:06:27;;;;;;;0.63;0.60;;;;;;;21.62;42.52;100752.00;5209255;28;20037;-84
2023/07/22 12:09:18;;;;;;;0.30;0.30;;;;;;;21.72;41.49;100740.66;5208302;28;20079;-85
2023/07/22 12:12:09;;;;;;;0.30;0.30;;;;;;;21.88;40.50;100741.22;5222732;28;20506;-86
2023/07/22 12:15:13;;;;;;;0.50;0.50;;;;;;;21.99;39.25;100751.94;5207314;28;20103;-85
2023/07/22 12:18:04;;;;;;;;;;;;;;;21.74;39.89;100739.56;5222333;28;20032;-85
2023/07/22 12:20:57;;;;;;;0.45;0.45;;;;;;;21.90;39.84;100723.25;5192562;28;19983;-85
2023/07/22 12:23:47;;;;;;;1.17;0.60;;;;;;;22.04;40.85;100711.53;5205298;28;20165;-85
2023/07/22 12:26:38;;;;;;;0.30;0.30;;;;;;;22.15;37.32;100716.06;5213138;28;20085;-85
2023/07/22 12:29:29;;;;;;;0.50;0.50;;;;;;;22.36;36.80;100718.03;5224185;28;20051;-85
2023/07/22 12:32:20;;;;;;;0.30;0.30;;;;;;;22.33;36.80;100713.78;5222270;28;20671;-85
2023/07/22 12:35:13;;;;;;;0.70;0.70;;;;;;;22.46;36.84;100722.63;5206010;28;20048;-84
2023/07/22 12:38:04;;;;;;;0.63;0.63;;;;;;;22.73;35.07;100712.53;5202629;28;20047;-85
2023/07/22 12:40:55;;;;;;;0.68;0.68;;;;;;;22.66;35.67;100703.31;5221989;28;20029;-84
2023/07/22 12:43:45;;;;;;;0.40;0.40;;;;;;;22.99;33.94;100712.31;5202932;28;20664;-85
2023/07/22 12:46:36;;;;;;;0.40;0.40;;;;;;;23.00;33.36;100716.69;5208758;28;20029;-85
2023/07/22 12:49:27;;;;;;;0.90;0.75;;;;;;;23.02;34.06;100707.56;5202345;28;20064;-85
2023/07/22 12:52:18;;;;;;;0.30;0.30;;;;;;;23.06;32.81;100711.66;5193547;28;20029;-85
2023/07/22 12:55:08;;;;;;;0.63;0.63;;;;;;;23.14;32.99;100708.41;5209880;28;20091;-84
2023/07/22 12:57:59;;;;;;;0.50;0.50;;;;;;;23.27;33.24;100703.78;5208082;28;20115;-85
2023/07/22 13:00:50;;;;;;;2.15;0.82;;;;;;;23.38;33.45;100694.00;5210632;28;20029;-84
2023/07/22 13:03:41;;;;;;;1.85;0.75;;;;;;;23.52;33.40;100701.75;5189897;28;20036;-85
2023/07/22 13:06:32;;;;;;;0.20;0.20;;;;;;;23.54;33.22;100699.81;5187570;28;20017;-84
2023/07/22 13:09:22;;;;;;;0.28;0.28;;;;;;;23.62;33.10;100701.88;5204751;28;20049;-85
2023/07/22 13:12:13;;;;;;;0.80;0.57;;;;;;;23.76;33.36;100691.81;5202440;28;20032;-84
2023/07/22 13:15:04;;;;;;;0.25;0.25;;;;;;;23.87;33.28;100689.94;5187872;28;20032;-84
2023/07/22 13:17:55;;;;;;;0.50;0.50;;;;;;;23.92;33.08;100692.25;5202583;28;20032;-85